createdAt,value
2022-10-28T00:01:59.050Z,10.30
2022-10-28T00:06:59.156Z,10.30
2022-10-28T00:09:27.777Z,10.30
2022-10-28T00:11:56.425Z,10.30
2022-10-28T00:14:25.316Z,10.30
2022-10-28T00:16:55.033Z,10.20
2022-10-28T00:19:23.746Z,10.20
2022-10-28T00:21:53.845Z,10.20
2022-10-28T00:24:23.028Z,10.20
2022-10-28T00:26:52.485Z,10.20
2022-10-28T00:29:21.831Z,10.20
2022-10-28T00:31:52.013Z,10.20
2022-10-28T00:34:22.623Z,10.20
2022-10-28T00:36:52.614Z,10.20
2022-10-28T00:39:25.075Z,10.20
2022-10-28T00:41:56.301Z,10.30
2022-10-28T00:44:55.197Z,10.30
2022-10-28T00:47:44.870Z,10.20
2022-10-28T00:50:20.675Z,10.20
2022-10-28T00:52:55.179Z,10.20
2022-10-28T00:55:27.894Z,10.20
2022-10-28T00:57:58.008Z,10.20
2022-10-28T01:00:27.852Z,10.20
2022-10-28T01:02:57.717Z,10.20
2022-10-28T01:05:29.840Z,10.10
2022-10-28T01:08:02.348Z,10.00
2022-10-28T01:10:48.542Z,10.00
2022-10-28T01:13:25.941Z,10.00
2022-10-28T01:16:00.788Z,9.90
2022-10-28T01:18:37.561Z,9.90
2022-10-28T01:21:44.771Z,9.90
2022-10-28T01:24:23.421Z,9.80
2022-10-28T01:27:29.746Z,9.80
2022-10-28T01:30:14.042Z,9.80
2022-10-28T01:32:53.236Z,9.70
2022-10-28T01:38:19.012Z,9.70
2022-10-28T01:40:53.501Z,9.60
2022-10-28T01:43:28.040Z,9.60
2022-10-28T01:46:02.265Z,9.60
2022-10-28T01:48:38.716Z,9.60
2022-10-28T01:51:13.147Z,9.60
2022-10-28T01:53:44.365Z,9.60
2022-10-28T01:56:18.177Z,9.60
2022-10-28T01:58:47.607Z,9.60
2022-10-28T02:01:17.247Z,9.60
2022-10-28T02:03:49.863Z,9.60
2022-10-28T02:06:21.826Z,9.60
2022-10-28T02:09:16.159Z,9.50
2022-10-28T02:12:04.981Z,9.50
2022-10-28T02:14:47.279Z,9.50
2022-10-28T02:17:23.695Z,9.50
2022-10-28T02:20:01.763Z,9.50
2022-10-28T02:22:44.929Z,9.40
2022-10-28T02:25:19.536Z,9.50
2022-10-28T02:27:53.633Z,9.40
2022-10-28T02:30:29.976Z,9.40
2022-10-28T02:33:07.216Z,9.40
2022-10-28T02:35:42.643Z,9.40
2022-10-28T02:38:15.872Z,9.40
2022-10-28T02:43:26.372Z,9.40
2022-10-28T02:46:02.049Z,9.40
2022-10-28T02:48:36.355Z,9.40
2022-10-28T02:51:11.615Z,9.40
2022-10-28T02:53:54.495Z,9.40
2022-10-28T02:56:26.361Z,9.40
2022-10-28T02:59:04.261Z,9.40
2022-10-28T03:01:32.903Z,9.40
2022-10-28T03:04:01.786Z,9.40
2022-10-28T03:06:31.674Z,9.40
2022-10-28T03:09:00.442Z,9.40
2022-10-28T03:11:29.028Z,9.40
2022-10-28T03:14:00.732Z,9.40
2022-10-28T03:16:29.302Z,9.40
2022-10-28T03:18:58.010Z,9.50
2022-10-28T03:21:26.722Z,9.50
2022-10-28T03:23:58.206Z,9.50
2022-10-28T03:26:28.350Z,9.60
2022-10-28T03:28:57.444Z,9.50
2022-10-28T03:31:26.016Z,9.50
2022-10-28T03:33:54.610Z,9.50
2022-10-28T03:36:23.213Z,9.50
2022-10-28T03:38:51.727Z,9.50
2022-10-28T03:41:21.800Z,9.50
2022-10-28T03:43:50.492Z,9.50
2022-10-28T03:46:19.476Z,9.50
2022-10-28T03:48:48.228Z,9.50
2022-10-28T03:51:16.754Z,9.50
2022-10-28T03:53:45.696Z,9.50
2022-10-28T03:56:14.291Z,9.50
2022-10-28T03:58:45.478Z,9.50
2022-10-28T04:01:14.167Z,9.50
2022-10-28T04:03:43.145Z,9.50
2022-10-28T04:06:11.710Z,9.40
2022-10-28T04:08:40.603Z,9.40
2022-10-28T04:11:09.470Z,9.40
2022-10-28T04:13:38.080Z,9.40
2022-10-28T04:16:08.695Z,9.40
2022-10-28T04:18:38.512Z,9.50
2022-10-28T04:21:07.376Z,9.50
2022-10-28T04:23:36.828Z,9.50
2022-10-28T04:26:05.602Z,9.50
2022-10-28T04:28:34.380Z,9.50
2022-10-28T04:31:03.284Z,9.50
2022-10-28T04:33:33.243Z,9.50
2022-10-28T04:36:01.779Z,9.50
2022-10-28T04:38:31.964Z,9.50
2022-10-28T04:41:06.020Z,9.50
2022-10-28T04:43:34.600Z,9.50
2022-10-28T04:46:06.178Z,9.50
2022-10-28T04:48:38.874Z,9.50
2022-10-28T04:51:15.097Z,9.50
2022-10-28T04:53:43.679Z,9.40
2022-10-28T04:56:12.847Z,9.40
2022-10-28T04:58:42.096Z,9.40
2022-10-28T05:01:12.037Z,9.40
2022-10-28T05:03:44.404Z,9.40
2022-10-28T05:06:13.222Z,9.40
2022-10-28T05:08:47.787Z,9.30
2022-10-28T05:11:17.184Z,9.30
2022-10-28T05:13:45.734Z,9.30
2022-10-28T05:16:18.879Z,9.30
2022-10-28T05:18:50.007Z,9.30
2022-10-28T05:21:20.546Z,9.30
2022-10-28T05:23:51.074Z,9.30
2022-10-28T05:26:23.198Z,9.20
2022-10-28T05:33:19.813Z,9.20
2022-10-28T05:35:53.210Z,9.20
2022-10-28T05:38:25.855Z,9.20
2022-10-28T05:40:54.580Z,9.20
2022-10-28T05:43:26.600Z,9.30
2022-10-28T05:45:56.933Z,9.30
2022-10-28T05:48:26.152Z,9.30
2022-10-28T05:50:57.094Z,9.30
2022-10-28T05:53:25.850Z,9.40
2022-10-28T05:55:54.363Z,9.40
2022-10-28T05:58:23.571Z,9.50
2022-10-28T06:00:52.086Z,9.50
2022-10-28T06:03:20.732Z,9.60
2022-10-28T06:05:50.329Z,9.60
2022-10-28T06:08:21.693Z,9.70
2022-10-28T06:10:56.378Z,9.70
2022-10-28T06:13:26.097Z,9.70
2022-10-28T06:15:55.910Z,9.80
2022-10-28T06:18:24.924Z,9.80
2022-10-28T06:20:56.178Z,9.90
2022-10-28T06:23:29.912Z,9.90
2022-10-28T06:25:59.810Z,10.00
2022-10-28T06:28:30.126Z,10.10
2022-10-28T06:31:04.523Z,10.20
2022-10-28T06:33:37.645Z,10.30
2022-10-28T06:36:07.942Z,10.30
2022-10-28T06:38:38.801Z,10.40
2022-10-28T06:41:07.405Z,10.50
2022-10-28T06:43:36.021Z,10.60
2022-10-28T06:46:05.334Z,10.60
2022-10-28T06:48:37.309Z,10.70
2022-10-28T06:51:06.763Z,10.80
2022-10-28T06:53:37.165Z,10.90
2022-10-28T06:56:08.209Z,11.00
2022-10-28T06:58:37.365Z,11.10
2022-10-28T07:01:08.480Z,11.20
2022-10-28T07:03:40.841Z,11.20
2022-10-28T07:06:09.477Z,11.20
2022-10-28T07:08:38.315Z,11.30
2022-10-28T07:11:12.739Z,11.40
2022-10-28T07:13:45.401Z,11.50
2022-10-28T07:16:16.788Z,11.60
2022-10-28T07:18:45.302Z,11.60
2022-10-28T07:21:14.443Z,11.60
2022-10-28T07:23:44.164Z,11.70
2022-10-28T07:26:14.087Z,11.80
2022-10-28T07:28:43.375Z,12.00
2022-10-28T07:31:12.391Z,12.00
2022-10-28T07:33:42.067Z,12.10
2022-10-28T07:36:12.064Z,12.20
2022-10-28T07:38:42.329Z,12.30
2022-10-28T07:41:13.554Z,12.40
2022-10-28T07:43:42.456Z,12.60
2022-10-28T07:46:11.182Z,12.70
2022-10-28T07:48:42.228Z,12.80
2022-10-28T07:51:15.305Z,13.00
2022-10-28T07:53:47.577Z,13.10
2022-10-28T07:56:19.866Z,13.20
2022-10-28T07:58:48.672Z,13.30
2022-10-28T08:01:22.876Z,13.40
2022-10-28T08:03:52.242Z,13.50
2022-10-28T08:06:22.160Z,13.70
2022-10-28T08:08:54.743Z,13.90
2022-10-28T08:11:25.463Z,14.00
2022-10-28T08:13:55.417Z,14.20
2022-10-28T08:16:24.441Z,14.40
2022-10-28T08:18:54.049Z,14.50
2022-10-28T08:21:25.491Z,14.70
2022-10-28T08:23:55.315Z,14.90
2022-10-28T08:26:25.313Z,15.10
2022-10-28T08:28:54.884Z,15.40
2022-10-28T08:31:23.687Z,15.50
2022-10-28T08:33:53.533Z,15.70
2022-10-28T08:36:25.335Z,15.80
2022-10-28T08:38:55.350Z,16.00
2022-10-28T08:41:36.213Z,16.10
2022-10-28T08:44:46.198Z,16.30
2022-10-28T08:47:25.730Z,16.40
2022-10-28T08:50:00.845Z,16.40
2022-10-28T08:52:34.096Z,16.30
2022-10-28T08:55:06.126Z,16.30
2022-10-28T08:57:44.970Z,16.20
2022-10-28T09:00:22.044Z,16.20
2022-10-28T09:03:02.570Z,16.10
2022-10-28T09:05:32.250Z,16.10
2022-10-28T09:08:02.627Z,16.00
2022-10-28T09:10:58.044Z,16.00
2022-10-28T09:13:41.217Z,16.10
2022-10-28T09:16:16.387Z,16.30
2022-10-28T09:18:53.632Z,16.50
2022-10-28T09:21:30.469Z,16.70
2022-10-28T09:24:07.148Z,16.80
2022-10-28T09:26:48.278Z,16.90
2022-10-28T09:29:37.168Z,17.10
2022-10-28T09:32:15.090Z,17.20
2022-10-28T09:34:47.401Z,17.20
2022-10-28T09:37:20.950Z,17.20
2022-10-28T09:39:54.244Z,17.40
2022-10-28T09:42:28.425Z,17.60
2022-10-28T09:45:04.600Z,17.80
2022-10-28T09:47:38.582Z,18.00
2022-10-28T09:50:16.891Z,18.00
2022-10-28T09:52:56.695Z,18.00
2022-10-28T09:55:29.795Z,18.10
2022-10-28T09:57:58.365Z,18.10
2022-10-28T10:00:30.894Z,18.20
2022-10-28T10:03:00.609Z,18.30
2022-10-28T10:05:34.520Z,18.50
2022-10-28T10:08:06.508Z,18.60
2022-10-28T10:10:50.834Z,18.90
2022-10-28T10:13:23.848Z,19.20
2022-10-28T10:15:56.766Z,19.60
2022-10-28T10:18:29.739Z,19.60
2022-10-28T10:21:02.824Z,19.70
2022-10-28T10:23:42.179Z,19.80
2022-10-28T10:26:13.822Z,19.90
2022-10-28T10:28:48.983Z,19.80
2022-10-28T10:31:24.278Z,19.80
2022-10-28T10:33:55.939Z,20.00
2022-10-28T10:36:28.864Z,20.00
2022-10-28T10:39:02.076Z,20.00
2022-10-28T10:41:36.418Z,19.90
2022-10-28T10:44:26.610Z,19.80
2022-10-28T10:47:25.573Z,19.70
2022-10-28T10:49:55.583Z,19.80
2022-10-28T10:52:26.306Z,19.70
2022-10-28T10:55:07.993Z,19.70
2022-10-28T10:57:36.771Z,19.80
2022-10-28T11:00:07.400Z,19.70
2022-10-28T11:02:40.603Z,19.60
2022-10-28T11:05:11.017Z,19.60
2022-10-28T11:07:47.887Z,19.60
2022-10-28T11:10:26.827Z,19.60
2022-10-28T11:12:57.773Z,19.70
2022-10-28T11:15:28.700Z,19.70
2022-10-28T11:18:04.066Z,19.70
2022-10-28T11:20:48.964Z,19.80
2022-10-28T11:23:32.257Z,19.90
2022-10-28T11:26:05.499Z,19.90
2022-10-28T11:28:48.103Z,19.90
2022-10-28T11:31:42.035Z,19.90
2022-10-28T11:34:52.854Z,19.80
2022-10-28T11:37:30.971Z,19.70
2022-10-28T11:40:13.504Z,19.80
2022-10-28T11:42:49.861Z,19.70
2022-10-28T11:45:26.990Z,19.80
2022-10-28T11:48:15.121Z,19.80
2022-10-28T11:51:07.957Z,19.90
2022-10-28T11:54:03.041Z,19.90
2022-10-28T11:56:38.076Z,19.80
2022-10-28T11:59:21.712Z,19.90
2022-10-28T12:02:03.573Z,20.00
2022-10-28T12:04:51.292Z,20.10
2022-10-28T12:07:43.088Z,20.10
2022-10-28T12:10:27.919Z,20.10
2022-10-28T12:13:04.491Z,20.10
2022-10-28T12:15:46.676Z,20.20
2022-10-28T12:18:24.683Z,20.00
2022-10-28T12:20:59.374Z,19.90
2022-10-28T12:23:33.043Z,19.80
2022-10-28T12:26:03.317Z,19.80
2022-10-28T12:28:37.782Z,19.80
2022-10-28T12:31:09.558Z,19.90
2022-10-28T12:33:44.005Z,19.90
2022-10-28T12:36:21.479Z,20.00
2022-10-28T12:39:01.104Z,20.00
2022-10-28T12:41:50.976Z,20.10
2022-10-28T12:44:23.664Z,20.00
2022-10-28T12:47:06.800Z,20.00
2022-10-28T12:49:48.598Z,19.90
2022-10-28T12:52:31.012Z,19.90
2022-10-28T12:55:05.180Z,19.90
2022-10-28T12:57:35.842Z,19.80
2022-10-28T13:00:07.778Z,19.80
2022-10-28T13:02:42.424Z,19.80
2022-10-28T13:05:21.579Z,19.70
2022-10-28T13:08:05.552Z,19.80
2022-10-28T13:10:43.904Z,19.90
2022-10-28T13:13:42.929Z,19.90
2022-10-28T13:16:31.769Z,19.90
2022-10-28T13:19:26.331Z,19.70
2022-10-28T13:22:22.294Z,19.60
2022-10-28T13:25:00.086Z,19.60
2022-10-28T13:27:32.813Z,19.50
2022-10-28T13:30:05.248Z,19.50
2022-10-28T13:32:38.812Z,19.50
2022-10-28T13:35:16.265Z,19.40
2022-10-28T13:37:51.308Z,19.30
2022-10-28T13:40:45.187Z,19.30
2022-10-28T13:43:21.902Z,19.20
2022-10-28T13:45:56.126Z,19.20
2022-10-28T13:48:48.010Z,19.10
2022-10-28T13:51:45.554Z,19.00
2022-10-28T13:54:31.461Z,18.90
2022-10-28T13:57:08.975Z,18.80
2022-10-28T13:59:57.918Z,18.70
2022-10-28T14:02:35.549Z,18.60
2022-10-28T14:05:08.644Z,18.60
2022-10-28T14:07:39.538Z,18.50
2022-10-28T14:10:21.679Z,18.40
2022-10-28T14:12:54.443Z,18.40
2022-10-28T14:15:29.910Z,18.30
2022-10-28T14:18:15.939Z,18.20
2022-10-28T14:21:00.920Z,18.20
2022-10-28T14:24:07.657Z,18.20
2022-10-28T14:27:30.141Z,18.10
2022-10-28T14:30:30.662Z,18.00
2022-10-28T14:33:03.760Z,18.00
2022-10-28T14:35:40.576Z,18.00
2022-10-28T14:38:53.963Z,17.90
2022-10-28T14:42:01.505Z,17.90
2022-10-28T14:44:53.938Z,17.70
2022-10-28T14:47:50.247Z,17.60
2022-10-28T14:50:22.588Z,17.50
2022-10-28T14:52:53.244Z,17.40
2022-10-28T14:55:25.960Z,17.40
2022-10-28T14:57:54.805Z,17.30
2022-10-28T15:00:29.069Z,17.20
2022-10-28T15:03:00.123Z,17.00
2022-10-28T15:05:32.594Z,17.00
2022-10-28T15:08:05.006Z,16.90
2022-10-28T15:10:37.450Z,16.80
2022-10-28T15:13:08.018Z,16.70
2022-10-28T15:15:37.819Z,16.60
2022-10-28T15:18:24.295Z,16.50
2022-10-28T15:21:09.674Z,16.40
2022-10-28T15:23:39.993Z,16.30
2022-10-28T15:26:09.389Z,16.20
2022-10-28T15:28:38.336Z,16.10
2022-10-28T15:31:07.237Z,16.00
2022-10-28T15:33:41.439Z,15.90
2022-10-28T15:36:18.311Z,15.90
2022-10-28T15:38:47.647Z,15.80
2022-10-28T15:41:42.628Z,15.70
2022-10-28T15:44:34.917Z,15.60
2022-10-28T15:47:16.906Z,15.50
2022-10-28T15:50:03.892Z,15.40
2022-10-28T15:52:41.396Z,15.30
2022-10-28T15:56:02.366Z,15.20
2022-10-28T15:58:36.708Z,15.10
2022-10-28T16:01:10.795Z,15.00
2022-10-28T16:03:45.706Z,15.00
2022-10-28T16:06:28.056Z,14.90
2022-10-28T16:09:06.579Z,14.80
2022-10-28T16:11:39.457Z,14.70
2022-10-28T16:14:33.861Z,14.70
2022-10-28T16:17:15.270Z,14.60
2022-10-28T16:19:50.165Z,14.60
2022-10-28T16:22:20.846Z,14.50
2022-10-28T16:24:50.982Z,14.50
2022-10-28T16:27:22.314Z,14.40
2022-10-28T16:29:51.332Z,14.40
2022-10-28T16:32:28.413Z,14.30
2022-10-28T16:34:58.019Z,14.30
2022-10-28T16:37:29.551Z,14.20
2022-10-28T16:39:58.167Z,14.20
2022-10-28T16:42:27.191Z,14.10
2022-10-28T16:44:55.651Z,14.10
2022-10-28T16:47:26.790Z,14.10
2022-10-28T16:49:57.684Z,14.00
2022-10-28T16:52:30.682Z,14.00
2022-10-28T16:54:59.940Z,13.90
2022-10-28T16:57:29.190Z,13.90
2022-10-28T16:59:57.753Z,13.80
2022-10-28T17:02:29.494Z,13.80
2022-10-28T17:04:58.869Z,13.70
2022-10-28T17:07:29.950Z,13.70
2022-10-28T17:09:58.773Z,13.60
2022-10-28T17:12:28.705Z,13.50
2022-10-28T17:14:57.143Z,13.50
2022-10-28T17:17:25.636Z,13.50
2022-10-28T17:19:54.104Z,13.40
2022-10-28T17:22:22.847Z,13.40
2022-10-28T17:24:52.701Z,13.30
2022-10-28T17:27:21.284Z,13.30
2022-10-28T17:29:49.900Z,13.30
2022-10-28T17:32:18.894Z,13.30
2022-10-28T17:34:47.454Z,13.20
2022-10-28T17:37:16.120Z,13.10
2022-10-28T17:39:44.900Z,13.10
2022-10-28T17:42:14.942Z,13.10
2022-10-28T17:44:43.445Z,13.00
2022-10-28T17:47:12.922Z,13.00
2022-10-28T17:49:41.457Z,13.00
2022-10-28T17:52:10.179Z,12.90
2022-10-28T17:54:38.758Z,12.90
2022-10-28T17:57:07.608Z,12.90
2022-10-28T17:59:37.560Z,12.80
2022-10-28T18:02:06.231Z,12.80
2022-10-28T18:04:35.166Z,12.70
2022-10-28T18:07:03.664Z,12.70
2022-10-28T18:09:33.029Z,12.60
2022-10-28T18:12:02.986Z,12.60
2022-10-28T18:14:31.661Z,12.60
2022-10-28T18:17:01.569Z,12.50
2022-10-28T18:19:30.218Z,12.50
2022-10-28T18:21:58.727Z,12.40
2022-10-28T18:24:27.216Z,12.40
2022-10-28T18:26:57.257Z,12.30
2022-10-28T18:29:26.286Z,12.30
2022-10-28T18:31:55.190Z,12.30
2022-10-28T18:34:25.340Z,12.30
2022-10-28T18:36:53.999Z,12.20
2022-10-28T18:39:22.562Z,12.20
2022-10-28T18:41:51.589Z,12.20
2022-10-28T18:44:24.246Z,12.20
2022-10-28T18:46:52.736Z,12.10
2022-10-28T18:49:21.437Z,12.10
2022-10-28T18:51:51.363Z,12.10
2022-10-28T18:54:19.882Z,12.10
2022-10-28T18:56:49.820Z,12.00
2022-10-28T18:59:19.904Z,12.00
2022-10-28T19:01:48.467Z,12.00
2022-10-28T19:04:17.123Z,11.90
2022-10-28T19:06:46.801Z,11.90
2022-10-28T19:09:16.656Z,11.90
2022-10-28T19:11:45.208Z,11.90
2022-10-28T19:14:13.809Z,11.80
2022-10-28T19:16:42.350Z,11.80
2022-10-28T19:19:10.872Z,11.80
2022-10-28T19:21:39.373Z,11.80
2022-10-28T19:24:08.471Z,11.80
2022-10-28T19:26:39.469Z,11.70
2022-10-28T19:29:08.050Z,11.70
2022-10-28T19:31:39.074Z,11.70
2022-10-28T19:34:07.807Z,11.70
2022-10-28T19:36:36.371Z,11.70
2022-10-28T19:39:05.347Z,11.60
2022-10-28T19:41:34.103Z,11.60
2022-10-28T19:44:05.212Z,11.60
2022-10-28T19:46:35.868Z,11.60
2022-10-28T19:49:06.186Z,11.50
2022-10-28T19:51:36.913Z,11.50
2022-10-28T19:54:09.974Z,11.50
2022-10-28T19:56:40.342Z,11.50
2022-10-28T19:59:10.198Z,11.50
2022-10-28T20:01:40.486Z,11.40
2022-10-28T20:04:10.126Z,11.40
2022-10-28T20:06:40.694Z,11.40
2022-10-28T20:09:09.235Z,11.40
2022-10-28T20:11:38.945Z,11.40
2022-10-28T20:14:11.904Z,11.40
2022-10-28T20:16:42.795Z,11.40
2022-10-28T20:19:11.715Z,11.40
2022-10-28T20:21:40.752Z,11.40
2022-10-28T20:24:09.884Z,11.40
2022-10-28T20:26:39.722Z,11.30
2022-10-28T20:29:10.069Z,11.30
2022-10-28T20:31:39.736Z,11.30
2022-10-28T20:34:09.070Z,11.30
2022-10-28T20:36:39.923Z,11.30
2022-10-28T20:39:12.507Z,11.30
2022-10-28T20:41:42.616Z,11.30
2022-10-28T20:44:13.110Z,11.30
2022-10-28T20:46:41.709Z,11.20
2022-10-28T20:49:10.680Z,11.20
2022-10-28T20:51:39.299Z,11.20
2022-10-28T20:54:07.973Z,11.20
2022-10-28T20:56:38.105Z,11.20
2022-10-28T20:59:07.283Z,11.20
2022-10-28T21:01:39.587Z,11.20
2022-10-28T21:04:10.702Z,11.20
2022-10-28T21:06:39.808Z,11.20
2022-10-28T21:09:08.953Z,11.20
2022-10-28T21:11:37.486Z,11.20
2022-10-28T21:14:06.101Z,11.20
2022-10-28T21:16:36.010Z,11.20
2022-10-28T21:19:04.558Z,11.20
2022-10-28T21:21:33.116Z,11.20
2022-10-28T21:24:01.737Z,11.20
2022-10-28T21:26:30.295Z,11.20
2022-10-28T21:28:58.849Z,11.20
2022-10-28T21:31:27.537Z,11.20
2022-10-28T21:33:59.197Z,11.20
2022-10-28T21:36:30.878Z,11.20
2022-10-28T21:38:59.382Z,11.20
2022-10-28T21:41:27.949Z,11.20
2022-10-28T21:43:56.544Z,11.20
2022-10-28T21:46:25.567Z,11.20
2022-10-28T21:48:54.725Z,11.20
2022-10-28T21:51:24.669Z,11.20
2022-10-28T21:53:53.193Z,11.20
2022-10-28T21:56:22.076Z,11.20
2022-10-28T21:58:51.761Z,11.20
2022-10-28T22:01:22.604Z,11.30
2022-10-28T22:03:52.205Z,11.30
2022-10-28T22:06:21.084Z,11.30
2022-10-28T22:08:53.233Z,11.30
2022-10-28T22:11:23.377Z,11.30
2022-10-28T22:13:58.076Z,11.20
2022-10-28T22:16:27.921Z,11.20
2022-10-28T22:18:56.638Z,11.20
2022-10-28T22:21:27.550Z,11.20
2022-10-28T22:23:57.647Z,11.20
2022-10-28T22:26:28.561Z,11.20
2022-10-28T22:28:57.544Z,11.20
2022-10-28T22:31:28.610Z,11.30
2022-10-28T22:33:57.797Z,11.30
2022-10-28T22:36:28.930Z,11.30
2022-10-28T22:38:59.059Z,11.20
2022-10-28T22:41:29.510Z,11.20
2022-10-28T22:43:59.610Z,11.20
2022-10-28T22:46:31.688Z,11.20
2022-10-28T22:49:00.415Z,11.20
2022-10-28T22:51:28.953Z,11.20
2022-10-28T22:53:59.058Z,11.20
2022-10-28T22:56:27.843Z,11.20
2022-10-28T22:58:58.030Z,11.20
2022-10-28T23:01:27.692Z,11.20
2022-10-28T23:03:56.688Z,11.20
2022-10-28T23:06:26.713Z,11.20
2022-10-28T23:08:55.889Z,11.20
2022-10-28T23:11:25.813Z,11.20
2022-10-28T23:13:55.018Z,11.20
2022-10-28T23:16:25.197Z,11.20
2022-10-28T23:18:54.013Z,11.20
2022-10-28T23:21:24.033Z,11.20
2022-10-28T23:23:54.688Z,11.20
2022-10-28T23:26:25.445Z,11.20
2022-10-28T23:28:55.483Z,11.20
2022-10-28T23:31:24.607Z,11.20
2022-10-28T23:33:55.025Z,11.20
2022-10-28T23:36:24.196Z,11.30
2022-10-28T23:38:53.980Z,11.20
2022-10-28T23:41:22.489Z,11.20
2022-10-28T23:43:52.351Z,11.30
2022-10-28T23:46:21.636Z,11.30
2022-10-28T23:48:50.118Z,11.30
2022-10-28T23:51:19.361Z,11.30
2022-10-28T23:53:47.871Z,11.30
2022-10-28T23:56:16.409Z,11.30
2022-10-28T23:58:44.867Z,11.40
